createdAt,value
2018-11-05T00:00:37.140Z,98.92
2018-11-05T00:03:06.653Z,98.77
2018-11-05T00:05:35.691Z,98.52
2018-11-05T00:08:04.839Z,98.88
2018-11-05T00:10:33.808Z,98.93
2018-11-05T00:13:02.768Z,98.25
2018-11-05T00:15:31.751Z,98.46
2018-11-05T00:18:00.747Z,98.42
2018-11-05T00:20:29.700Z,99.27
2018-11-05T00:22:58.676Z,99.53
2018-11-05T00:25:27.611Z,98.74
2018-11-05T00:27:56.584Z,99.22
2018-11-05T00:30:25.513Z,98.68
2018-11-05T00:32:54.495Z,98.86
2018-11-05T00:35:23.448Z,98.88
2018-11-05T00:37:52.419Z,98.53
2018-11-05T00:40:21.378Z,98.85
2018-11-05T00:42:50.301Z,98.68
2018-11-05T00:45:19.619Z,98.78
2018-11-05T00:47:48.603Z,99.37
2018-11-05T00:50:17.547Z,99.18
2018-11-05T00:52:46.548Z,99.68
2018-11-05T00:55:15.467Z,99.48
2018-11-05T00:57:44.410Z,99.37
2018-11-05T01:00:15.357Z,99.24
2018-11-05T01:02:44.315Z,99.35
2018-11-05T01:05:14.653Z,99.70
2018-11-05T01:07:44.382Z,99.81
2018-11-05T01:10:14.769Z,99.95
2018-11-05T01:12:43.741Z,100.00
2018-11-05T01:15:14.019Z,99.75
2018-11-05T01:17:42.997Z,100.00
2018-11-05T01:20:13.048Z,100.00
2018-11-05T01:22:42.082Z,100.00
2018-11-05T01:25:11.120Z,99.55
2018-11-05T01:27:40.216Z,100.00
2018-11-05T01:30:11.652Z,100.00
2018-11-05T01:32:40.708Z,100.00
2018-11-05T01:35:11.067Z,99.69
2018-11-05T01:37:40.079Z,99.96
2018-11-05T01:40:11.159Z,100.00
2018-11-05T01:42:40.313Z,99.78
2018-11-05T01:45:10.543Z,99.83
2018-11-05T01:47:39.705Z,100.00
2018-11-05T01:50:10.375Z,100.00
2018-11-05T01:52:39.473Z,100.00
2018-11-05T01:55:08.994Z,100.00
2018-11-05T01:57:38.681Z,99.95
2018-11-05T02:00:10.863Z,100.00
2018-11-05T02:02:39.899Z,100.00
2018-11-05T02:05:09.696Z,100.00
2018-11-05T02:07:38.790Z,100.00
2018-11-05T02:10:09.855Z,100.00
2018-11-05T02:12:38.854Z,100.00
2018-11-05T02:15:08.161Z,100.00
2018-11-05T02:17:37.144Z,100.00
2018-11-05T02:20:06.426Z,100.00
2018-11-05T02:22:35.377Z,100.00
2018-11-05T02:25:04.598Z,100.00
2018-11-05T02:27:33.623Z,100.00
2018-11-05T02:30:02.561Z,100.00
2018-11-05T02:32:31.529Z,100.00
2018-11-05T02:35:00.486Z,100.00
2018-11-05T02:37:29.437Z,100.00
2018-11-05T02:39:58.402Z,100.00
2018-11-05T02:42:27.374Z,100.00
2018-11-05T02:44:56.348Z,100.00
2018-11-05T02:47:25.309Z,100.00
2018-11-05T02:49:54.249Z,100.00
2018-11-05T02:52:23.245Z,100.00
2018-11-05T02:54:52.254Z,100.00
2018-11-05T02:57:21.207Z,100.00
2018-11-05T02:59:50.867Z,100.00
2018-11-05T03:02:19.874Z,100.00
2018-11-05T03:04:48.834Z,100.00
2018-11-05T03:07:17.839Z,100.00
2018-11-05T03:09:46.786Z,99.78
2018-11-05T03:12:15.792Z,100.00
2018-11-05T03:14:44.740Z,100.00
2018-11-05T03:17:13.680Z,100.00
2018-11-05T03:19:43.148Z,100.00
2018-11-05T03:22:12.126Z,100.00
2018-11-05T03:24:41.106Z,100.00
2018-11-05T03:27:10.123Z,100.00
2018-11-05T03:29:39.136Z,100.00
2018-11-05T03:32:08.112Z,100.00
2018-11-05T03:34:37.104Z,99.58
2018-11-05T03:37:06.087Z,100.00
2018-11-05T03:39:35.071Z,100.00
2018-11-05T03:42:04.097Z,100.00
2018-11-05T03:44:33.134Z,100.00
2018-11-05T03:47:02.153Z,100.00
2018-11-05T03:49:31.147Z,100.00
2018-11-05T03:52:00.137Z,100.00
2018-11-05T03:54:29.081Z,99.74
2018-11-05T03:56:58.078Z,100.00
2018-11-05T03:59:27.052Z,100.00
2018-11-05T04:01:56.025Z,100.00
2018-11-05T04:04:25.049Z,100.00
2018-11-05T04:06:54.068Z,100.00
2018-11-05T04:09:23.023Z,100.00
2018-11-05T04:11:52.062Z,100.00
2018-11-05T04:14:21.032Z,100.00
2018-11-05T04:16:50.021Z,100.00
2018-11-05T04:19:18.968Z,100.00
2018-11-05T04:21:47.951Z,100.00
2018-11-05T04:24:16.951Z,100.00
2018-11-05T04:26:46.558Z,100.00
2018-11-05T04:29:15.511Z,100.00
2018-11-05T04:31:44.488Z,100.00
2018-11-05T04:34:13.465Z,100.00
2018-11-05T04:36:42.400Z,100.00
2018-11-05T04:39:13.999Z,100.00
2018-11-05T04:41:42.997Z,100.00
2018-11-05T04:44:11.978Z,100.00
2018-11-05T04:46:41.088Z,100.00
2018-11-05T04:49:10.554Z,100.00
2018-11-05T04:51:39.505Z,100.00
2018-11-05T04:54:08.494Z,100.00
2018-11-05T04:56:37.549Z,100.00
2018-11-05T04:59:07.073Z,100.00
2018-11-05T05:01:36.074Z,100.00
2018-11-05T05:04:05.059Z,100.00
2018-11-05T05:06:33.996Z,100.00
2018-11-05T05:09:02.937Z,100.00
2018-11-05T05:11:31.924Z,100.00
2018-11-05T05:14:00.871Z,100.00
2018-11-05T05:16:29.851Z,100.00
2018-11-05T05:18:58.791Z,100.00
2018-11-05T05:21:27.781Z,100.00
2018-11-05T05:23:56.697Z,100.00
2018-11-05T05:26:25.778Z,100.00
2018-11-05T05:28:54.727Z,100.00
2018-11-05T05:31:23.720Z,100.00
2018-11-05T05:33:52.693Z,100.00
2018-11-05T05:36:21.624Z,100.00
2018-11-05T05:38:50.597Z,100.00
2018-11-05T05:41:19.589Z,100.00
2018-11-05T05:43:48.533Z,100.00
2018-11-05T05:46:17.488Z,100.00
2018-11-05T05:48:46.465Z,100.00
2018-11-05T05:51:15.576Z,100.00
2018-11-05T05:53:44.512Z,100.00
2018-11-05T05:56:13.510Z,100.00
2018-11-05T05:58:42.493Z,100.00
2018-11-05T06:01:11.445Z,100.00
2018-11-05T06:03:40.553Z,100.00
2018-11-05T06:06:09.862Z,100.00
2018-11-05T06:08:38.875Z,100.00
2018-11-05T06:11:07.814Z,100.00
2018-11-05T06:13:36.802Z,100.00
2018-11-05T06:16:05.801Z,100.00
2018-11-05T06:18:34.802Z,100.00
2018-11-05T06:21:03.776Z,100.00
2018-11-05T06:23:32.826Z,100.00
2018-11-05T06:26:01.766Z,100.00
2018-11-05T06:28:30.809Z,100.00
2018-11-05T06:30:59.741Z,100.00
2018-11-05T06:33:28.636Z,100.00
2018-11-05T06:35:57.655Z,100.00
2018-11-05T06:38:26.644Z,100.00
2018-11-05T06:40:55.620Z,100.00
2018-11-05T06:43:24.555Z,100.00
2018-11-05T06:45:53.481Z,100.00
2018-11-05T06:48:22.414Z,100.00
2018-11-05T06:50:51.358Z,100.00
2018-11-05T06:53:20.344Z,100.00
2018-11-05T06:55:49.311Z,100.00
2018-11-05T06:58:18.276Z,100.00
2018-11-05T07:00:47.219Z,100.00
2018-11-05T07:03:16.187Z,100.00
2018-11-05T07:05:46.943Z,100.00
2018-11-05T07:08:15.872Z,100.00
2018-11-05T07:10:44.830Z,100.00
2018-11-05T07:13:15.340Z,100.00
2018-11-05T07:15:44.902Z,100.00
2018-11-05T07:18:13.905Z,100.00
2018-11-05T07:20:45.590Z,100.00
2018-11-05T07:23:17.129Z,100.00
2018-11-05T07:25:46.632Z,100.00
2018-11-05T07:28:16.280Z,100.00
2018-11-05T07:30:45.230Z,100.00
2018-11-05T07:33:16.572Z,100.00
2018-11-05T07:35:46.605Z,100.00
2018-11-05T07:38:16.550Z,100.00
2018-11-05T07:40:45.513Z,100.00
2018-11-05T07:43:14.463Z,100.00
2018-11-05T07:45:43.984Z,100.00
2018-11-05T07:48:12.927Z,100.00
2018-11-05T07:50:42.931Z,100.00
2018-11-05T07:53:13.348Z,100.00
2018-11-05T07:55:42.331Z,100.00
2018-11-05T07:58:11.957Z,100.00
2018-11-05T08:00:46.258Z,100.00
2018-11-05T08:03:15.257Z,100.00
2018-11-05T08:05:45.322Z,100.00
2018-11-05T08:08:14.356Z,100.00
2018-11-05T08:10:43.244Z,100.00
2018-11-05T08:13:14.799Z,100.00
2018-11-05T08:15:44.397Z,100.00
2018-11-05T08:18:13.383Z,100.00
2018-11-05T08:20:44.808Z,100.00
2018-11-05T08:23:13.728Z,100.00
2018-11-05T08:25:42.705Z,100.00
2018-11-05T08:28:12.774Z,100.00
2018-11-05T08:30:41.680Z,100.00
2018-11-05T08:33:10.749Z,100.00
2018-11-05T08:35:39.707Z,100.00
2018-11-05T08:38:08.639Z,100.00
2018-11-05T08:40:38.367Z,100.00
2018-11-05T08:43:07.327Z,100.00
2018-11-05T08:45:36.255Z,100.00
2018-11-05T08:48:05.343Z,100.00
2018-11-05T08:50:34.734Z,100.00
2018-11-05T08:53:03.812Z,100.00
2018-11-05T08:55:32.747Z,100.00
2018-11-05T08:58:02.544Z,100.00
2018-11-05T09:00:37.403Z,100.00
2018-11-05T09:03:06.510Z,100.00
2018-11-05T09:05:36.510Z,100.00
2018-11-05T09:08:05.459Z,100.00
2018-11-05T09:10:35.191Z,100.00
2018-11-05T09:13:05.260Z,100.00
2018-11-05T09:15:37.041Z,100.00
2018-11-05T09:18:07.321Z,100.00
2018-11-05T09:20:36.296Z,100.00
2018-11-05T09:23:05.723Z,99.88
2018-11-05T09:25:36.508Z,99.70
2018-11-05T09:28:08.186Z,100.00
2018-11-05T09:30:37.115Z,100.00
2018-11-05T09:33:06.054Z,100.00
2018-11-05T09:35:35.047Z,99.89
2018-11-05T09:38:04.728Z,100.00
2018-11-05T09:40:33.699Z,100.00
2018-11-05T09:43:02.668Z,100.00
2018-11-05T09:45:32.648Z,100.00
2018-11-05T09:48:01.629Z,99.74
2018-11-05T09:50:32.632Z,99.40
2018-11-05T09:53:01.597Z,99.87
2018-11-05T09:55:30.583Z,100.00
2018-11-05T09:57:59.558Z,100.00
2018-11-05T10:00:29.466Z,100.00
2018-11-05T10:03:03.891Z,100.00
2018-11-05T10:05:33.560Z,100.00
2018-11-05T10:08:02.459Z,99.77
2018-11-05T10:10:34.230Z,100.00
2018-11-05T10:13:03.246Z,99.57
2018-11-05T10:15:32.254Z,99.62
2018-11-05T10:18:01.193Z,99.72
2018-11-05T10:20:30.120Z,99.80
2018-11-05T10:23:00.939Z,99.90
2018-11-05T10:25:29.921Z,99.69
2018-11-05T10:28:03.486Z,99.74
2018-11-05T10:30:33.137Z,100.00
2018-11-05T10:33:02.107Z,99.49
2018-11-05T10:36:04.327Z,99.73
2018-11-05T10:38:35.500Z,99.98
2018-11-05T10:41:04.461Z,100.00
2018-11-05T10:43:34.016Z,100.00
2018-11-05T10:46:03.041Z,99.78
2018-11-05T10:48:33.016Z,99.75
2018-11-05T10:51:02.062Z,99.90
2018-11-05T10:53:30.947Z,99.52
2018-11-05T10:56:00.814Z,99.50
2018-11-05T10:58:30.595Z,99.61
2018-11-05T11:01:05.322Z,99.71
2018-11-05T11:03:36.643Z,99.79
2018-11-05T11:06:06.832Z,98.95
2018-11-05T11:08:35.768Z,99.66
2018-11-05T11:11:06.797Z,99.74
2018-11-05T11:13:36.972Z,99.23
2018-11-05T11:16:05.900Z,99.75
2018-11-05T11:18:35.889Z,99.39
2018-11-05T11:21:05.334Z,99.61
2018-11-05T11:23:34.793Z,99.62
2018-11-05T11:26:03.766Z,99.28
2018-11-05T11:28:32.919Z,99.48
2018-11-05T11:31:01.860Z,99.48
2018-11-05T11:33:34.228Z,99.58
2018-11-05T11:36:03.801Z,99.57
2018-11-05T11:38:32.877Z,99.33
2018-11-05T11:41:02.327Z,99.71
2018-11-05T11:43:32.165Z,98.88
2018-11-05T11:46:01.187Z,99.34
2018-11-05T11:48:31.077Z,99.32
2018-11-05T11:51:00.050Z,100.00
2018-11-05T11:53:30.516Z,99.25
2018-11-05T11:55:59.980Z,99.73
2018-11-05T11:58:28.907Z,100.00
2018-11-05T12:00:57.915Z,99.67
2018-11-05T12:03:26.879Z,99.73
2018-11-05T12:05:55.796Z,99.92
2018-11-05T12:08:24.767Z,99.71
2018-11-05T12:10:53.724Z,99.81
2018-11-05T12:13:22.698Z,99.98
2018-11-05T12:15:52.700Z,99.81
2018-11-05T12:18:22.525Z,99.67
2018-11-05T12:20:52.361Z,99.81
2018-11-05T12:23:21.302Z,100.00
2018-11-05T12:25:51.087Z,99.63
2018-11-05T12:28:20.798Z,99.46
2018-11-05T12:30:49.731Z,99.44
2018-11-05T12:33:19.929Z,99.33
2018-11-05T12:35:50.377Z,99.63
2018-11-05T12:38:19.340Z,99.37
2018-11-05T12:40:48.334Z,98.96
2018-11-05T12:43:20.416Z,98.37
2018-11-05T12:45:50.706Z,99.20
2018-11-05T12:48:20.893Z,98.94
2018-11-05T12:50:50.015Z,99.01
2018-11-05T12:53:18.868Z,98.84
2018-11-05T12:55:48.761Z,98.99
2018-11-05T12:58:17.936Z,99.79
2018-11-05T13:00:47.620Z,99.94
2018-11-05T13:03:16.596Z,99.47
2018-11-05T13:05:45.511Z,99.33
2018-11-05T13:08:14.489Z,99.07
2018-11-05T13:10:44.349Z,99.11
2018-11-05T13:13:13.310Z,98.81
2018-11-05T13:15:43.287Z,98.59
2018-11-05T13:18:12.768Z,98.51
2018-11-05T13:20:43.040Z,98.40
2018-11-05T13:23:12.055Z,98.68
2018-11-05T13:25:40.997Z,98.55
2018-11-05T13:28:09.994Z,98.77
2018-11-05T13:30:38.959Z,98.65
2018-11-05T13:33:07.910Z,98.66
2018-11-05T13:35:40.496Z,98.91
2018-11-05T13:38:10.000Z,98.56
2018-11-05T13:40:38.406Z,98.51
2018-11-05T13:43:08.090Z,98.30
2018-11-05T13:45:37.766Z,98.02
2018-11-05T13:48:06.944Z,98.04
2018-11-05T13:50:36.323Z,97.92
2018-11-05T13:53:06.213Z,98.19
2018-11-05T13:55:35.857Z,97.66
2018-11-05T13:58:05.371Z,97.83
2018-11-05T14:00:34.858Z,97.52
2018-11-05T14:03:03.903Z,97.56
2018-11-05T14:05:32.963Z,97.96
2018-11-05T14:08:02.694Z,98.00
2018-11-05T14:10:32.802Z,97.34
2018-11-05T14:13:01.787Z,97.70
2018-11-05T14:15:31.195Z,97.66
2018-11-05T14:18:00.294Z,97.34
2018-11-05T14:20:30.046Z,97.46
2018-11-05T14:22:59.025Z,97.54
2018-11-05T14:25:28.367Z,97.36
2018-11-05T14:27:58.142Z,97.24
2018-11-05T14:30:28.161Z,97.06
2018-11-05T14:32:57.235Z,97.85
2018-11-05T14:35:26.188Z,97.68
2018-11-05T14:37:55.165Z,97.50
2018-11-05T14:40:25.103Z,97.40
2018-11-05T14:42:54.093Z,97.41
2018-11-05T14:45:26.075Z,96.58
2018-11-05T14:47:55.000Z,96.98
2018-11-05T14:50:24.987Z,97.11
2018-11-05T14:52:53.949Z,97.31
2018-11-05T14:55:23.591Z,97.41
2018-11-05T14:57:52.768Z,96.90
2018-11-05T15:00:26.188Z,96.86
2018-11-05T15:02:56.575Z,97.10
2018-11-05T15:05:25.539Z,96.89
2018-11-05T15:07:54.991Z,97.32
2018-11-05T15:10:26.270Z,96.66
2018-11-05T15:12:55.259Z,96.82
2018-11-05T15:15:24.247Z,96.82
2018-11-05T15:17:53.242Z,96.36
2018-11-05T15:20:24.052Z,96.09
2018-11-05T15:22:57.033Z,96.25
2018-11-05T15:25:26.117Z,96.18
2018-11-05T15:27:55.671Z,96.67
2018-11-05T15:30:25.898Z,96.19
2018-11-05T15:32:55.853Z,96.55
2018-11-05T15:35:26.224Z,96.47
2018-11-05T15:37:55.333Z,96.38
2018-11-05T15:40:25.271Z,95.98
2018-11-05T15:42:54.273Z,96.75
2018-11-05T15:45:23.357Z,96.19
2018-11-05T15:47:52.320Z,96.40
2018-11-05T15:50:21.867Z,96.95
2018-11-05T15:52:53.440Z,96.90
2018-11-05T15:55:22.151Z,96.29
2018-11-05T15:57:51.844Z,96.61
2018-11-05T16:00:25.686Z,96.19
2018-11-05T16:02:57.030Z,96.50
2018-11-05T16:05:27.153Z,96.71
2018-11-05T16:07:56.141Z,96.76
2018-11-05T16:10:25.901Z,96.45
2018-11-05T16:12:57.772Z,96.90
2018-11-05T16:15:27.832Z,96.48
2018-11-05T16:17:59.527Z,96.16
2018-11-05T16:20:28.471Z,96.50
2018-11-05T16:22:57.424Z,96.29
2018-11-05T16:25:26.370Z,96.30
2018-11-05T16:27:57.631Z,96.35
2018-11-05T16:30:26.648Z,95.94
2018-11-05T16:32:55.589Z,96.33
2018-11-05T16:35:26.482Z,95.78
2018-11-05T16:37:55.414Z,96.02
2018-11-05T16:40:25.534Z,95.44
2018-11-05T16:42:55.803Z,96.21
2018-11-05T16:45:25.818Z,95.63
2018-11-05T16:47:55.690Z,95.88
2018-11-05T16:50:27.347Z,95.30
2018-11-05T16:52:56.926Z,95.88
2018-11-05T16:55:27.745Z,95.42
2018-11-05T16:57:59.962Z,95.28
2018-11-05T17:00:28.966Z,95.76
2018-11-05T17:02:57.984Z,95.92
2018-11-05T17:05:29.686Z,95.39
2018-11-05T17:07:59.253Z,95.93
2018-11-05T17:10:28.284Z,96.25
2018-11-05T17:13:00.387Z,95.83
2018-11-05T17:15:29.313Z,96.23
2018-11-05T17:17:58.326Z,96.50
2018-11-05T17:20:27.315Z,96.89
2018-11-05T17:22:56.326Z,96.76
2018-11-05T17:25:25.326Z,96.59
2018-11-05T17:27:55.036Z,96.08
2018-11-05T17:30:23.973Z,96.20
2018-11-05T17:32:53.641Z,96.47
2018-11-05T17:35:22.653Z,96.37
2018-11-05T17:37:53.634Z,96.05
2018-11-05T17:40:23.980Z,95.98
2018-11-05T17:42:53.815Z,96.29
2018-11-05T17:45:24.329Z,95.97
2018-11-05T17:47:53.329Z,95.71
2018-11-05T17:50:23.283Z,95.82
2018-11-05T17:52:52.252Z,96.60
2018-11-05T17:55:22.200Z,96.13
2018-11-05T17:57:51.218Z,96.19
2018-11-05T18:00:21.403Z,97.03
2018-11-05T18:02:50.405Z,96.39
2018-11-05T18:05:20.201Z,96.36
2018-11-05T18:07:49.531Z,96.03
2018-11-05T18:10:18.548Z,96.32
2018-11-05T18:12:47.551Z,96.60
2018-11-05T18:15:17.661Z,96.50
2018-11-05T18:17:47.107Z,96.26
2018-11-05T18:20:16.823Z,96.03
2018-11-05T18:22:47.917Z,96.45
2018-11-05T18:25:18.222Z,96.41
2018-11-05T18:27:47.891Z,95.93
2018-11-05T18:30:20.212Z,95.99
2018-11-05T18:32:49.245Z,96.87
2018-11-05T18:35:18.225Z,95.88
2018-11-05T18:37:50.187Z,96.15
2018-11-05T18:40:20.783Z,95.48
2018-11-05T18:42:51.079Z,96.17
2018-11-05T18:45:20.171Z,95.20
2018-11-05T18:47:50.911Z,95.57
2018-11-05T18:50:19.982Z,95.38
2018-11-05T18:52:49.647Z,96.39
2018-11-05T18:55:20.029Z,95.47
2018-11-05T18:57:52.015Z,95.08
2018-11-05T19:00:25.837Z,95.74
2018-11-05T19:02:56.268Z,96.22
2018-11-05T19:05:26.397Z,95.76
2018-11-05T19:07:55.455Z,95.65
2018-11-05T19:10:24.724Z,95.88
2018-11-05T19:12:56.571Z,96.79
2018-11-05T19:15:25.573Z,95.92
2018-11-05T19:17:55.901Z,95.98
2018-11-05T19:20:26.199Z,96.11
2018-11-05T19:22:55.285Z,96.43
2018-11-05T19:25:24.186Z,96.44
2018-11-05T19:27:53.251Z,96.50
2018-11-05T19:30:23.875Z,95.87
2018-11-05T19:32:52.835Z,95.52
2018-11-05T19:35:21.830Z,95.49
2018-11-05T19:37:52.938Z,94.77
2018-11-05T19:40:21.939Z,95.14
2018-11-05T19:42:51.094Z,95.54
2018-11-05T19:45:21.356Z,95.60
2018-11-05T19:47:50.329Z,95.50
2018-11-05T19:50:20.591Z,96.24
2018-11-05T19:52:50.596Z,96.00
2018-11-05T19:55:19.998Z,95.72
2018-11-05T19:57:49.610Z,95.44
2018-11-05T20:00:20.185Z,95.13
2018-11-05T20:02:49.785Z,94.97
2018-11-05T20:05:19.057Z,95.29
2018-11-05T20:07:48.580Z,95.36
2018-11-05T20:10:17.611Z,95.16
2018-11-05T20:12:46.934Z,95.11
2018-11-05T20:15:16.273Z,95.01
2018-11-05T20:17:46.105Z,94.82
2018-11-05T20:20:16.559Z,94.62
2018-11-05T20:22:45.670Z,94.45
2018-11-05T20:25:14.620Z,93.12
2018-11-05T20:27:43.883Z,93.61
2018-11-05T20:30:15.548Z,93.67
2018-11-05T20:32:45.813Z,94.68
2018-11-05T20:35:14.622Z,94.78
2018-11-05T20:37:43.599Z,94.04
2018-11-05T20:40:14.907Z,93.35
2018-11-05T20:42:45.001Z,93.46
2018-11-05T20:45:14.635Z,92.98
2018-11-05T20:47:43.864Z,93.43
2018-11-05T20:50:13.783Z,93.13
2018-11-05T20:52:42.767Z,92.88
2018-11-05T20:55:13.072Z,93.28
2018-11-05T20:57:42.502Z,92.39
2018-11-05T21:00:13.280Z,93.27
2018-11-05T21:02:42.689Z,93.79
2018-11-05T21:05:11.733Z,94.14
2018-11-05T21:07:41.745Z,93.69
2018-11-05T21:10:11.919Z,92.51
2018-11-05T21:12:41.605Z,93.03
2018-11-05T21:15:13.859Z,92.68
2018-11-05T21:17:43.407Z,93.09
2018-11-05T21:20:12.763Z,93.08
2018-11-05T21:22:41.851Z,93.79
2018-11-05T21:25:10.983Z,93.57
2018-11-05T21:27:40.544Z,93.27
2018-11-05T21:30:11.334Z,92.94
2018-11-05T21:32:40.474Z,93.09
2018-11-05T21:35:11.668Z,93.25
2018-11-05T21:37:41.003Z,92.75
2018-11-05T21:40:11.104Z,92.33
2018-11-05T21:42:40.138Z,92.66
2018-11-05T21:45:10.486Z,92.02
2018-11-05T21:47:40.148Z,92.07
2018-11-05T21:50:10.810Z,92.11
2018-11-05T21:52:40.653Z,91.44
2018-11-05T21:55:09.803Z,92.58
2018-11-05T21:57:40.470Z,92.59
2018-11-05T22:00:18.249Z,92.93
2018-11-05T22:02:52.486Z,93.29
2018-11-05T22:05:21.463Z,92.82
2018-11-05T22:07:50.485Z,92.76
2018-11-05T22:10:19.455Z,92.37
2018-11-05T22:12:48.755Z,92.48
2018-11-05T22:15:17.975Z,92.35
2018-11-05T22:17:46.950Z,92.35
2018-11-05T22:20:15.884Z,92.72
2018-11-05T22:22:45.008Z,92.42
2018-11-05T22:25:13.873Z,93.06
2018-11-05T22:27:42.818Z,92.38
2018-11-05T22:30:12.290Z,92.99
2018-11-05T22:32:41.260Z,92.17
2018-11-05T22:35:10.223Z,91.87
2018-11-05T22:37:39.168Z,91.54
2018-11-05T22:40:10.807Z,91.90
2018-11-05T22:42:39.772Z,92.02
2018-11-05T22:45:09.157Z,91.73
2018-11-05T22:47:38.136Z,91.84
2018-11-05T22:50:07.762Z,92.45
2018-11-05T22:52:36.797Z,92.28
2018-11-05T22:55:06.332Z,91.89
2018-11-05T22:57:35.297Z,92.57
2018-11-05T23:00:05.463Z,92.36
2018-11-05T23:02:34.932Z,93.73
2018-11-05T23:05:03.916Z,93.21
2018-11-05T23:07:32.864Z,93.34
2018-11-05T23:10:01.855Z,92.99
2018-11-05T23:12:30.846Z,92.37
2018-11-05T23:14:59.821Z,92.83
2018-11-05T23:17:28.797Z,92.25
2018-11-05T23:19:57.821Z,92.92
2018-11-05T23:22:26.805Z,92.62
2018-11-05T23:24:55.823Z,91.72
2018-11-05T23:27:24.742Z,91.50
2018-11-05T23:29:55.762Z,91.37
2018-11-05T23:32:25.900Z,91.33
2018-11-05T23:34:54.882Z,92.12
2018-11-05T23:37:23.838Z,91.79
2018-11-05T23:39:52.775Z,91.07
2018-11-05T23:42:21.788Z,91.70
2018-11-05T23:44:50.786Z,91.68
2018-11-05T23:47:19.733Z,91.92
2018-11-05T23:49:48.759Z,90.95
2018-11-05T23:52:17.745Z,91.19
2018-11-05T23:54:46.734Z,91.23
2018-11-05T23:57:15.701Z,91.00
2018-11-05T23:59:44.645Z,90.85
